createdAt,value
2017-04-30T00:07:21.472Z,69
2017-04-30T00:17:32.675Z,69.7
2017-04-30T00:27:43.985Z,70.8
2017-04-30T00:37:55.350Z,72.1
2017-04-30T00:48:06.680Z,72.3
2017-04-30T00:58:18.012Z,72.8
2017-04-30T01:08:29.365Z,73.3
2017-04-30T01:18:40.746Z,73.8
2017-04-30T01:28:52.139Z,75.4
2017-04-30T01:39:03.547Z,76.2
2017-04-30T01:49:15.009Z,77.7
2017-04-30T01:59:26.495Z,78.9
2017-04-30T02:09:37.937Z,79.6
2017-04-30T02:19:49.473Z,80
2017-04-30T02:30:00.986Z,80.4
2017-04-30T02:40:12.407Z,80.3
2017-04-30T02:50:23.904Z,81
2017-04-30T03:00:35.408Z,81.4
2017-04-30T03:10:46.978Z,82.5
2017-04-30T03:20:58.449Z,82.2
2017-04-30T03:31:10.001Z,82.7
2017-04-30T03:41:21.572Z,81.7
2017-04-30T03:51:33.184Z,82.3
2017-04-30T04:01:44.999Z,81.8
2017-04-30T04:11:56.359Z,81.6
2017-04-30T04:22:07.921Z,80.5
2017-04-30T04:32:19.304Z,79.4
2017-04-30T04:42:30.562Z,78.4
2017-04-30T04:52:41.750Z,76.7
2017-04-30T05:02:52.808Z,75.2
2017-04-30T05:13:03.774Z,73.6
2017-04-30T05:23:14.584Z,73
2017-04-30T05:33:25.274Z,71.9
2017-04-30T05:43:35.811Z,70.4
2017-04-30T05:53:46.170Z,69
2017-04-30T06:03:56.392Z,68.2
2017-04-30T06:14:06.561Z,66.3
2017-04-30T06:24:16.672Z,64.9
2017-04-30T06:34:26.685Z,63.4
2017-04-30T06:44:36.571Z,63.1
2017-04-30T06:54:46.430Z,62.1
2017-04-30T07:04:56.099Z,59.8
2017-04-30T07:15:05.625Z,59.8
2017-04-30T07:25:15.177Z,58.2
2017-04-30T07:35:24.527Z,57.5
2017-04-30T07:45:33.821Z,56.6
2017-04-30T07:55:43.042Z,55.1
2017-04-30T08:05:52.196Z,56.5
2017-04-30T08:16:01.265Z,54
2017-04-30T08:26:10.252Z,54.3
2017-04-30T08:36:19.181Z,53.2
2017-04-30T08:46:28.041Z,52.5
2017-04-30T08:56:36.888Z,50.6
2017-04-30T09:06:45.673Z,50.3
2017-04-30T09:16:54.427Z,49.4
2017-04-30T09:27:03.102Z,49.2
2017-04-30T09:37:11.731Z,48.7
2017-04-30T09:47:20.227Z,48.1
2017-04-30T09:57:28.777Z,46
2017-04-30T10:07:37.342Z,44.8
2017-04-30T10:17:45.903Z,45.2
2017-04-30T10:27:54.359Z,44.1
2017-04-30T10:38:02.907Z,45.1
2017-04-30T10:48:11.476Z,44.3
2017-04-30T10:58:20.092Z,43.4
2017-04-30T11:08:28.678Z,41.9
2017-04-30T11:18:37.292Z,43.3
2017-04-30T11:28:45.904Z,41.8
2017-04-30T11:38:54.389Z,40.9
2017-04-30T11:49:02.832Z,41.1
2017-04-30T11:59:11.279Z,40.8
2017-04-30T12:09:19.751Z,39.6
2017-04-30T12:19:28.286Z,37.9
2017-04-30T12:29:36.713Z,37.6
2017-04-30T12:39:45.004Z,36.6
2017-04-30T12:49:53.239Z,36.6
2017-04-30T13:00:01.543Z,35.3
2017-04-30T13:10:09.824Z,36.9
2017-04-30T13:20:18.230Z,37.3
2017-04-30T13:30:26.740Z,35.9
2017-04-30T13:40:34.959Z,34.5
2017-04-30T13:50:43.104Z,34.5
2017-04-30T14:00:51.382Z,34.7
2017-04-30T14:10:59.667Z,34.4
2017-04-30T14:21:07.828Z,34.4
2017-04-30T14:31:16.029Z,34.4
2017-04-30T14:41:24.174Z,33.9
2017-04-30T14:51:32.250Z,33.8
2017-04-30T15:01:40.367Z,32.9
2017-04-30T15:11:48.447Z,33.9
2017-04-30T15:21:56.540Z,33.5
2017-04-30T15:32:04.683Z,34.4
2017-04-30T15:42:13.162Z,35.3
2017-04-30T15:52:21.543Z,34.5
2017-04-30T16:02:29.752Z,34.3
2017-04-30T16:12:37.939Z,34
2017-04-30T16:22:46.134Z,33.2
2017-04-30T16:32:54.425Z,34
2017-04-30T16:43:02.820Z,33.5
2017-04-30T16:53:11.475Z,33.9
2017-04-30T17:03:20.169Z,33.4
2017-04-30T17:13:28.745Z,33.4
2017-04-30T17:23:37.314Z,33.9
2017-04-30T17:33:46.002Z,34.2
2017-04-30T17:43:54.772Z,35
2017-04-30T17:54:03.676Z,36
2017-04-30T18:04:12.745Z,36.9
2017-04-30T18:14:21.856Z,37.3
2017-04-30T18:24:31.063Z,37.9
2017-04-30T18:34:40.394Z,38.5
2017-04-30T18:44:49.921Z,38.2
2017-04-30T18:54:59.351Z,38.9
2017-04-30T19:05:09.052Z,39.3
2017-04-30T19:15:18.767Z,39.7
2017-04-30T19:25:28.530Z,41.1
2017-04-30T19:35:38.352Z,41.4
2017-04-30T19:45:48.232Z,41.4
2017-04-30T19:55:58.139Z,42.2
2017-04-30T20:06:08.116Z,42.4
2017-04-30T20:16:18.074Z,42
2017-04-30T20:26:28.037Z,41.9
2017-04-30T20:36:38.082Z,41.7
2017-04-30T20:46:48.085Z,42
2017-04-30T20:56:58.115Z,42
2017-04-30T21:07:08.157Z,41.5
2017-04-30T21:17:18.272Z,42.4
2017-04-30T21:27:28.423Z,42.5
2017-04-30T21:37:38.554Z,43
2017-04-30T21:47:48.771Z,43.4
2017-04-30T21:57:58.931Z,45.2
2017-04-30T22:08:09.142Z,45.3
2017-04-30T22:18:19.398Z,46.3
2017-04-30T22:28:29.689Z,46.3
2017-04-30T22:38:40.036Z,46.4
2017-04-30T22:48:50.358Z,46.6
2017-04-30T22:59:00.671Z,47.5
2017-04-30T23:09:10.964Z,48.1
2017-04-30T23:19:21.248Z,48.5
2017-04-30T23:29:31.558Z,48.7
2017-04-30T23:39:41.823Z,49.8
2017-04-30T23:49:52.111Z,50.6
